Time;durP1;ratioP1;P1;durP2;ratioP2;P2;SDS_P1;SDS_P2;PMS_P1;PMS_P2;Temp;Humidity;BMP_temperature;BMP_pressure;BME280_temperature;BME280_humidity;BME280_pressure;Samples;Min_cycle;Max_cycle;Signal;HPM_P1;HPM_P2
2023/04/21 00:02:19;;;;;;;59.15;38.22;;;9.00;99.90;;;;;;5005944;28;20052;-78
2023/04/21 00:04:46;;;;;;;51.38;36.00;;;9.00;99.90;;;;;;5006976;28;20460;-75
2023/04/21 00:07:13;;;;;;;60.08;38.03;;;9.10;99.90;;;;;;4990318;28;20549;-77
2023/04/21 00:09:40;;;;;;;60.20;39.10;;;9.10;99.90;;;;;;4988670;28;20557;-75
2023/04/21 00:12:07;;;;;;;50.67;36.78;;;9.20;99.90;;;;;;4988405;28;20133;-76
2023/04/21 00:14:34;;;;;;;52.40;36.50;;;9.30;99.90;;;;;;4991367;28;20460;-76
2023/04/21 00:17:01;;;;;;;54.63;40.63;;;9.30;99.90;;;;;;4999024;28;20252;-79
2023/04/21 00:19:28;;;;;;;55.72;40.60;;;9.20;99.90;;;;;;4990791;28;20037;-75
2023/04/21 00:21:57;;;;;;;50.25;36.80;;;9.20;99.90;;;;;;4983893;28;20248;-75
2023/04/21 00:24:25;;;;;;;53.72;39.70;;;9.20;99.90;;;;;;5000384;28;20052;-78
2023/04/21 00:26:51;;;;;;;51.20;39.20;;;9.30;99.90;;;;;;4983285;28;20061;-79
2023/04/21 00:29:18;;;;;;;55.72;40.50;;;9.30;99.90;;;;;;4984295;28;22048;-74
2023/04/21 00:31:45;;;;;;;58.58;40.72;;;9.30;99.90;;;;;;4974999;28;20057;-76
2023/04/21 00:34:12;;;;;;;50.88;40.40;;;9.20;99.90;;;;;;5004714;28;20033;-76
2023/04/21 00:36:39;;;;;;;59.38;40.28;;;9.20;99.90;;;;;;4974716;28;20046;-74
2023/04/21 00:39:05;;;;;;;51.53;36.72;;;9.30;99.90;;;;;;4997726;28;20426;-76
2023/04/21 00:41:34;;;;;;;50.25;36.53;;;9.30;99.90;;;;;;4975589;28;20438;-75
2023/04/21 00:44:07;;;;;;;53.67;39.03;;;9.30;99.90;;;;;;5007941;28;20053;-77
2023/04/21 00:46:34;;;;;;;51.78;37.63;;;9.30;99.90;;;;;;4992258;28;20774;-76
2023/04/21 00:49:05;;;;;;;50.88;36.03;;;9.20;99.90;;;;;;4973743;28;20033;-75
2023/04/21 00:51:34;;;;;;;52.28;38.13;;;9.20;99.90;;;;;;5014489;28;20037;-75
2023/04/21 00:54:05;;;;;;;56.45;37.55;;;9.30;99.90;;;;;;5006908;28;20392;-75
2023/04/21 00:56:34;;;;;;;54.63;39.70;;;9.30;99.90;;;;;;4981484;28;20564;-74
2023/04/21 00:59:02;;;;;;;56.42;39.42;;;9.20;99.90;;;;;;4991795;28;20037;-75
2023/04/21 01:01:30;;;;;;;57.97;38.40;;;9.20;99.90;;;;;;5005596;28;20049;-74
2023/04/21 01:03:59;;;;;;;50.58;36.92;;;9.20;99.90;;;;;;4985116;28;20676;-75
2023/04/21 01:06:31;;;;;;;53.90;40.88;;;9.20;99.90;;;;;;4980608;28;20084;-76
2023/04/21 01:08:59;;;;;;;47.67;37.65;;;9.20;99.90;;;;;;4975976;28;20061;-75
2023/04/21 01:11:25;;;;;;;54.67;39.03;;;9.20;99.90;;;;;;4991685;28;20439;-75
2023/04/21 01:13:55;;;;;;;50.25;39.05;;;9.20;99.90;;;;;;4987299;28;20446;-75
2023/04/21 01:16:23;;;;;;;53.03;38.90;;;9.20;99.90;;;;;;5000017;28;20057;-75
2023/04/21 01:18:52;;;;;;;54.40;40.05;;;9.10;99.90;;;;;;4978534;28;20056;-75
2023/04/21 01:21:20;;;;;;;53.50;38.65;;;9.20;99.90;;;;;;5003899;28;20579;-75
2023/04/21 01:23:47;;;;;;;53.53;37.22;;;9.30;99.90;;;;;;4998179;28;20057;-75
2023/04/21 01:26:17;;;;;;;56.35;41.50;;;9.30;99.90;;;;;;4981047;28;20225;-75
2023/04/21 01:28:46;;;;;;;55.08;39.42;;;9.30;99.90;;;;;;4976066;28;20313;-75
2023/04/21 01:31:15;;;;;;;53.47;40.65;;;9.30;99.90;;;;;;4983760;28;20045;-74
2023/04/21 01:33:42;;;;;;;47.65;35.78;;;9.30;99.90;;;;;;5012583;28;20042;-74
2023/04/21 01:36:09;;;;;;;51.13;38.70;;;9.30;99.90;;;;;;5008849;28;20494;-75
2023/04/21 01:38:40;;;;;;;53.30;39.90;;;9.30;99.90;;;;;;4997427;28;20751;-74
2023/04/21 01:41:07;;;;;;;48.97;39.03;;;9.30;99.90;;;;;;4980278;28;20041;-74
2023/04/21 01:43:34;;;;;;;50.22;38.97;;;9.30;99.90;;;;;;4981909;28;20045;-75
2023/04/21 01:46:02;;;;;;;51.63;39.38;;;9.30;99.90;;;;;;5007028;28;21712;-75
2023/04/21 01:48:29;;;;;;;48.88;34.90;;;9.30;99.90;;;;;;5008288;28;20037;-75
2023/04/21 01:50:56;;;;;;;46.53;37.08;;;9.20;99.90;;;;;;5008262;28;20137;-75
2023/04/21 01:53:23;;;;;;;52.53;38.15;;;9.20;99.90;;;;;;5012324;28;20038;-75
2023/04/21 01:55:49;;;;;;;44.90;34.60;;;9.20;99.90;;;;;;4977907;28;20731;-75
2023/04/21 01:58:16;;;;;;;54.40;38.53;;;9.10;99.90;;;;;;4989931;28;20045;-75
2023/04/21 02:00:43;;;;;;;54.88;40.65;;;9.20;99.90;;;;;;4969234;28;20054;-75
2023/04/21 02:03:10;;;;;;;55.60;39.22;;;9.10;99.90;;;;;;4998770;28;20038;-75
2023/04/21 02:05:37;;;;;;;53.38;37.95;;;9.10;99.90;;;;;;4997794;28;20110;-75
2023/04/21 02:08:05;;;;;;;49.08;37.42;;;9.10;99.90;;;;;;5006279;28;20649;-75
2023/04/21 02:10:32;;;;;;;57.97;39.10;;;9.20;99.90;;;;;;4976960;28;20037;-75
2023/04/21 02:12:59;;;;;;;53.30;39.53;;;9.20;99.90;;;;;;5010860;28;20049;-75
2023/04/21 02:15:28;;;;;;;50.75;39.75;;;9.20;99.90;;;;;;4991754;28;20053;-74
2023/04/21 02:17:55;;;;;;;53.17;38.55;;;9.30;99.90;;;;;;4998108;28;20038;-75
2023/04/21 02:20:24;;;;;;;54.45;40.25;;;9.30;99.90;;;;;;5004676;28;20059;-75
2023/04/21 02:22:50;;;;;;;50.22;38.88;;;9.30;99.90;;;;;;4989370;28;20034;-75
2023/04/21 02:25:18;;;;;;;49.65;39.33;;;9.30;99.90;;;;;;4999519;28;20054;-75
2023/04/21 02:27:45;;;;;;;50.28;38.47;;;9.30;99.90;;;;;;5005779;28;20096;-75
2023/04/21 02:30:12;;;;;;;50.63;39.33;;;9.30;99.90;;;;;;4996667;28;20038;-75
2023/04/21 02:32:41;;;;;;;57.78;41.33;;;9.30;99.90;;;;;;4986811;28;20045;-75
2023/04/21 02:35:09;;;;;;;51.85;40.80;;;9.40;99.90;;;;;;4992814;28;20124;-75
2023/04/21 02:37:36;;;;;;;49.95;40.03;;;9.40;99.90;;;;;;5004166;28;20046;-75
2023/04/21 02:40:05;;;;;;;49.40;38.47;;;9.40;99.90;;;;;;4993138;28;21393;-75
2023/04/21 02:42:33;;;;;;;53.92;41.00;;;9.40;99.90;;;;;;5009910;28;20128;-75
2023/04/21 02:45:00;;;;;;;48.83;40.63;;;9.30;99.90;;;;;;4975478;28;20037;-75
2023/04/21 02:47:27;;;;;;;52.20;38.97;;;9.30;99.90;;;;;;4990530;28;20038;-75
2023/04/21 02:49:54;;;;;;;57.72;41.33;;;9.40;99.90;;;;;;4972095;28;20050;-75
2023/04/21 02:52:21;;;;;;;53.50;40.08;;;9.30;99.90;;;;;;4993706;28;20049;-75
2023/04/21 02:54:48;;;;;;;51.00;41.30;;;9.30;99.90;;;;;;4992566;28;20291;-74
2023/04/21 02:57:14;;;;;;;49.28;39.95;;;9.30;99.90;;;;;;5011237;28;20041;-75
2023/04/21 02:59:41;;;;;;;54.80;39.72;;;9.20;99.90;;;;;;4999559;28;20479;-75
2023/04/21 03:02:08;;;;;;;51.47;39.80;;;9.20;99.90;;;;;;4994780;28;20042;-74
2023/04/21 03:04:37;;;;;;;49.03;39.25;;;9.20;99.90;;;;;;4993293;28;20192;-75
2023/04/21 03:07:03;;;;;;;49.38;39.00;;;9.20;99.90;;;;;;5004797;28;20045;-75
2023/04/21 03:09:31;;;;;;;50.97;39.92;;;9.20;99.90;;;;;;5004744;28;20052;-75
2023/04/21 03:11:58;;;;;;;57.58;41.65;;;9.20;99.90;;;;;;4986007;28;20133;-75
2023/04/21 03:14:25;;;;;;;51.97;39.05;;;9.20;99.90;;;;;;5013020;28;20044;-75
2023/04/21 03:16:52;;;;;;;57.63;41.10;;;9.20;99.90;;;;;;5006576;28;20041;-75
2023/04/21 03:19:18;;;;;;;62.13;40.60;;;9.10;99.90;;;;;;4994777;28;20041;-75
2023/04/21 03:21:45;;;;;;;57.20;39.42;;;9.20;99.90;;;;;;5011040;28;20073;-75
2023/04/21 03:24:12;;;;;;;55.53;39.15;;;9.10;99.90;;;;;;4965771;28;20119;-75
2023/04/21 03:26:39;;;;;;;51.05;40.88;;;9.00;99.90;;;;;;4994961;28;20132;-75
2023/04/21 03:29:06;;;;;;;54.03;38.97;;;9.00;99.90;;;;;;4967585;28;20056;-75
2023/04/21 03:31:33;;;;;;;55.90;40.92;;;8.90;99.90;;;;;;4993546;28;20042;-75
2023/04/21 03:34:00;;;;;;;58.90;40.78;;;8.80;99.90;;;;;;4996636;28;20042;-75
2023/04/21 03:36:26;;;;;;;57.20;40.63;;;8.90;99.90;;;;;;4996502;28;20038;-76
2023/04/21 03:38:53;;;;;;;53.55;39.17;;;8.90;99.90;;;;;;4978913;28;20141;-76
2023/04/21 03:41:20;;;;;;;52.47;39.05;;;8.90;99.90;;;;;;4987331;28;20122;-76
2023/04/21 03:43:51;;;;;;;55.83;38.97;;;8.90;99.90;;;;;;5013899;28;20045;-75
2023/04/21 03:46:20;;;;;;;50.30;40.40;;;8.80;99.90;;;;;;5002579;28;20053;-75
2023/04/21 03:48:47;;;;;;;58.17;40.75;;;8.90;99.90;;;;;;4991907;28;20651;-76
2023/04/21 03:51:14;;;;;;;51.85;38.45;;;8.90;99.90;;;;;;4984338;28;20077;-75
2023/04/21 03:53:41;;;;;;;57.92;38.95;;;8.90;99.90;;;;;;4990398;28;20133;-75
2023/04/21 03:56:08;;;;;;;63.92;41.17;;;8.80;99.90;;;;;;4991543;28;20060;-76
2023/04/21 03:58:35;;;;;;;56.42;40.92;;;8.70;99.90;;;;;;5000165;28;20042;-75
2023/04/21 04:01:05;;;;;;;55.25;39.80;;;8.70;99.90;;;;;;4993385;28;20518;-76
2023/04/21 04:03:33;;;;;;;56.17;40.17;;;8.60;99.90;;;;;;4989489;28;20041;-76
2023/04/21 04:06:01;;;;;;;65.60;41.88;;;8.70;99.90;;;;;;4988389;28;20117;-75
2023/04/21 04:08:29;;;;;;;55.78;41.35;;;8.60;99.90;;;;;;5011255;28;20050;-76
2023/04/21 04:10:55;;;;;;;52.97;41.90;;;8.70;99.90;;;;;;4975779;28;20037;-75
2023/04/21 04:13:23;;;;;;;59.17;40.10;;;8.70;99.90;;;;;;4987640;28;20476;-75
2023/04/21 04:15:50;;;;;;;61.95;43.10;;;8.60;99.90;;;;;;4985326;28;20038;-76
2023/04/21 04:18:17;;;;;;;61.40;42.65;;;8.70;99.90;;;;;;4993393;28;20184;-76
2023/04/21 04:20:43;;;;;;;62.30;41.97;;;8.70;99.90;;;;;;4979881;28;20037;-75
2023/04/21 04:23:10;;;;;;;57.50;40.90;;;8.70;99.90;;;;;;4972375;28;20049;-76
2023/04/21 04:25:38;;;;;;;67.05;44.20;;;8.70;99.90;;;;;;4985553;28;20058;-75
2023/04/21 04:28:06;;;;;;;61.63;42.78;;;8.70;99.90;;;;;;4986887;28;20041;-76
2023/04/21 04:30:34;;;;;;;59.88;42.38;;;8.70;99.90;;;;;;4994448;28;20459;-75
2023/04/21 04:33:01;;;;;;;67.38;43.78;;;8.70;99.90;;;;;;4986597;28;20131;-75
2023/04/21 04:35:27;;;;;;;59.90;42.60;;;8.80;99.90;;;;;;4989609;28;20052;-76
2023/04/21 04:37:55;;;;;;;61.90;44.17;;;8.80;99.90;;;;;;4987830;28;20209;-75
2023/04/21 04:40:22;;;;;;;59.65;42.03;;;8.80;99.90;;;;;;4980502;28;20049;-75
2023/04/21 04:42:50;;;;;;;60.92;42.08;;;8.80;99.90;;;;;;4994943;28;20566;-75
2023/04/21 04:45:20;;;;;;;57.45;42.92;;;8.90;99.90;;;;;;4985015;28;20077;-76
2023/04/21 04:47:48;;;;;;;61.42;42.67;;;8.90;99.90;;;;;;4996269;28;20043;-75
2023/04/21 04:50:15;;;;;;;58.90;43.63;;;8.90;99.90;;;;;;5003754;28;20048;-75
2023/04/21 04:52:45;;;;;;;59.83;42.17;;;8.90;99.90;;;;;;4991963;28;21248;-75
2023/04/21 04:55:13;;;;;;;55.80;42.53;;;9.00;99.90;;;;;;4987375;28;20051;-76
2023/04/21 04:57:40;;;;;;;59.65;42.75;;;9.00;99.90;;;;;;4982355;28;20053;-75
2023/04/21 05:00:10;;;;;;;55.08;43.10;;;9.10;99.90;;;;;;4988527;28;20381;-74
2023/04/21 05:02:37;;;;;;;62.72;43.85;;;9.20;99.90;;;;;;4988559;28;20048;-74
2023/04/21 05:05:05;;;;;;;56.97;41.85;;;9.10;99.90;;;;;;4986626;28;20530;-75
2023/04/21 05:07:33;;;;;;;56.25;44.05;;;9.10;99.90;;;;;;4998921;28;20668;-75
2023/04/21 05:10:01;;;;;;;54.17;43.47;;;9.10;99.90;;;;;;4990428;28;20045;-75
2023/04/21 05:12:27;;;;;;;57.10;42.13;;;9.10;99.90;;;;;;5001152;28;20053;-74
2023/04/21 05:14:54;;;;;;;65.10;45.22;;;9.20;99.90;;;;;;4986494;28;20046;-76
2023/04/21 05:17:21;;;;;;;57.75;42.90;;;9.10;99.90;;;;;;4995509;28;20044;-75
2023/04/21 05:19:47;;;;;;;57.40;42.58;;;9.10;99.90;;;;;;4971169;28;20037;-76
2023/04/21 05:22:14;;;;;;;55.25;38.53;;;9.10;99.90;;;;;;5004373;28;20049;-74
2023/04/21 05:24:41;;;;;;;61.65;41.90;;;9.10;99.90;;;;;;4992560;28;20052;-75
2023/04/21 05:27:08;;;;;;;54.78;41.35;;;9.20;99.90;;;;;;5004310;28;20042;-75
2023/04/21 05:29:35;;;;;;;59.70;41.63;;;9.20;99.90;;;;;;4992768;28;20033;-75
2023/04/21 05:32:01;;;;;;;56.47;42.30;;;9.20;99.90;;;;;;4992337;28;20033;-74
2023/04/21 05:34:28;;;;;;;56.08;42.83;;;9.20;99.90;;;;;;4990448;28;20038;-74
2023/04/21 05:36:55;;;;;;;58.78;42.47;;;9.20;99.90;;;;;;4988281;28;20050;-74
2023/04/21 05:39:21;;;;;;;57.45;41.75;;;9.20;99.90;;;;;;5016552;28;20611;-76
2023/04/21 05:41:48;;;;;;;56.95;42.90;;;9.20;99.90;;;;;;4990821;28;20100;-75
2023/04/21 05:44:16;;;;;;;57.05;40.58;;;9.20;99.90;;;;;;4999329;28;20157;-76
2023/04/21 05:46:44;;;;;;;56.97;43.10;;;9.20;99.90;;;;;;5013279;28;20065;-76
2023/04/21 05:49:10;;;;;;;54.55;40.95;;;9.20;99.90;;;;;;5003932;28;20052;-75
2023/04/21 05:51:37;;;;;;;53.50;42.83;;;9.30;99.90;;;;;;5005708;28;20038;-76
2023/04/21 05:54:04;;;;;;;53.72;40.40;;;9.30;99.90;;;;;;4972029;28;20053;-75
2023/04/21 05:56:31;;;;;;;48.97;40.08;;;9.30;99.90;;;;;;4988394;28;20038;-75
2023/04/21 05:58:57;;;;;;;53.63;42.08;;;9.40;99.90;;;;;;4989898;28;20056;-76
2023/04/21 06:01:24;;;;;;;57.03;42.13;;;9.40;99.90;;;;;;4966585;28;20045;-74
2023/04/21 06:03:51;;;;;;;48.28;38.53;;;9.50;99.90;;;;;;4981130;28;20635;-74
2023/04/21 06:06:18;;;;;;;55.30;41.00;;;9.50;99.90;;;;;;5006100;28;20042;-75
2023/04/21 06:08:44;;;;;;;50.90;41.53;;;9.60;99.90;;;;;;5000589;28;20044;-75
2023/04/21 06:11:11;;;;;;;54.45;41.78;;;9.70;99.90;;;;;;4984119;28;20046;-75
2023/04/21 06:13:37;;;;;;;51.75;41.50;;;9.80;99.90;;;;;;5006908;28;20041;-76
2023/04/21 06:16:07;;;;;;;54.40;40.47;;;9.90;99.90;;;;;;4984054;28;20069;-75
2023/04/21 06:18:34;;;;;;;47.78;39.47;;;10.00;99.90;;;;;;5015535;28;20133;-75
2023/04/21 06:21:01;;;;;;;52.78;41.22;;;10.00;99.90;;;;;;4994564;28;20049;-75
2023/04/21 06:23:27;;;;;;;51.80;41.40;;;10.10;99.90;;;;;;4987620;28;20368;-74
2023/04/21 06:26:05;;;;;;;53.55;41.00;;;10.20;99.90;;;;;;5008085;28;20050;-76
2023/04/21 06:28:34;;;;;;;50.75;40.78;;;10.20;99.90;;;;;;4997667;28;20491;-76
2023/04/21 06:31:02;;;;;;;46.47;39.50;;;10.40;99.90;;;;;;4991602;28;20077;-76
2023/04/21 06:33:30;;;;;;;51.13;42.83;;;10.40;99.90;;;;;;4993707;28;20129;-75
2023/04/21 06:35:57;;;;;;;50.28;43.53;;;10.50;99.90;;;;;;5013412;28;20129;-74
2023/04/21 06:38:23;;;;;;;48.92;41.78;;;10.60;99.90;;;;;;4972298;28;20054;-74
2023/04/21 06:40:50;;;;;;;49.42;44.10;;;10.90;99.90;;;;;;4992413;28;20056;-76
2023/04/21 06:43:17;;;;;;;49.50;44.25;;;11.00;99.90;;;;;;5008541;28;20054;-74
2023/04/21 06:45:44;;;;;;;50.90;45.75;;;11.10;99.90;;;;;;4993267;28;20509;-75
2023/04/21 06:48:10;;;;;;;49.88;44.63;;;11.30;99.90;;;;;;4972747;28;20072;-76
2023/04/21 06:50:37;;;;;;;48.78;43.65;;;11.50;99.90;;;;;;4998511;28;20042;-76
2023/04/21 06:53:04;;;;;;;49.60;44.55;;;11.50;99.90;;;;;;4995069;28;20055;-74
2023/04/21 06:55:31;;;;;;;49.17;43.97;;;11.50;99.90;;;;;;5002910;28;20042;-76
2023/04/21 06:57:57;;;;;;;52.13;46.35;;;11.50;99.90;;;;;;4984930;28;20048;-75
2023/04/21 07:00:24;;;;;;;47.17;42.15;;;11.60;99.90;;;;;;4997241;28;20041;-74
2023/04/21 07:02:51;;;;;;;49.00;44.05;;;11.50;99.90;;;;;;4985632;28;20045;-76
2023/04/21 07:05:18;;;;;;;46.65;42.00;;;11.40;99.90;;;;;;4994415;28;20097;-74
2023/04/21 07:07:44;;;;;;;51.53;46.42;;;11.40;99.90;;;;;;4973321;28;20041;-75
2023/04/21 07:10:11;;;;;;;48.72;43.95;;;11.70;99.90;;;;;;5002614;28;20073;-76
2023/04/21 07:12:38;;;;;;;48.85;43.67;;;12.10;99.90;;;;;;4993389;28;20052;-74
2023/04/21 07:15:05;;;;;;;48.10;42.88;;;12.30;99.90;;;;;;5000524;28;20042;-74
2023/04/21 07:17:32;;;;;;;47.78;43.05;;;12.50;99.90;;;;;;4999214;28;20049;-75
2023/04/21 07:19:59;;;;;;;49.53;44.80;;;12.60;99.90;;;;;;5003721;28;20515;-73
2023/04/21 07:22:26;;;;;;;48.35;43.38;;;12.40;99.90;;;;;;4988128;28;20073;-75
2023/04/21 07:24:53;;;;;;;47.88;43.47;;;12.60;99.90;;;;;;4991397;28;20122;-74
2023/04/21 07:27:20;;;;;;;48.47;43.25;;;12.80;99.90;;;;;;5010230;28;20096;-74
2023/04/21 07:29:46;;;;;;;48.90;43.92;;;12.80;99.90;;;;;;5000073;28;20052;-75
2023/04/21 07:32:13;;;;;;;46.03;41.88;;;12.80;99.90;;;;;;4980203;28;20048;-74
2023/04/21 07:34:40;;;;;;;47.80;43.28;;;12.90;99.90;;;;;;4993118;28;20048;-76
2023/04/21 07:37:06;;;;;;;51.38;45.75;;;12.90;99.90;;;;;;4999273;28;20285;-75
2023/04/21 07:39:33;;;;;;;46.50;41.80;;;13.20;99.90;;;;;;4989426;28;20132;-75
2023/04/21 07:42:00;;;;;;;47.97;42.90;;;13.40;99.90;;;;;;5000450;28;20041;-73
2023/04/21 07:44:28;;;;;;;47.13;42.60;;;13.50;99.90;;;;;;4965321;28;20034;-75
2023/04/21 07:46:54;;;;;;;49.58;44.15;;;13.60;99.90;;;;;;4999557;28;20048;-75
2023/04/21 07:49:21;;;;;;;48.58;44.13;;;12.90;99.90;;;;;;4989187;28;20072;-75
2023/04/21 07:51:48;;;;;;;45.05;41.15;;;13.40;99.90;;;;;;4990827;28;20568;-74
2023/04/21 07:54:15;;;;;;;47.80;43.13;;;14.20;99.90;;;;;;4987113;28;20050;-73
2023/04/21 07:56:42;;;;;;;49.42;44.78;;;13.80;99.90;;;;;;4997565;28;20046;-75
2023/04/21 07:59:09;;;;;;;49.72;44.80;;;13.40;99.90;;;;;;5003824;28;20038;-74
2023/04/21 08:01:35;;;;;;;49.30;44.65;;;13.50;99.90;;;;;;4994843;28;20259;-75
2023/04/21 08:04:02;;;;;;;46.47;41.83;;;13.80;99.90;;;;;;4992609;28;20098;-75
2023/04/21 08:06:29;;;;;;;46.00;41.67;;;14.30;99.90;;;;;;4994736;28;20071;-75
2023/04/21 08:08:56;;;;;;;45.53;41.20;;;14.70;99.90;;;;;;5001010;28;20022;-75
2023/04/21 08:11:22;;;;;;;45.72;41.50;;;14.50;99.90;;;;;;4983077;28;20994;-75
2023/04/21 08:13:50;;;;;;;46.25;41.85;;;14.40;99.90;;;;;;5000210;28;20509;-75
2023/04/21 08:16:17;;;;;;;45.95;41.17;;;14.40;99.90;;;;;;5004591;28;20205;-75
2023/04/21 08:18:43;;;;;;;48.03;43.20;;;14.40;99.90;;;;;;4999511;28;20042;-75
2023/04/21 08:21:10;;;;;;;46.15;41.78;;;14.20;99.90;;;;;;5007158;28;20168;-75
2023/04/21 08:23:37;;;;;;;48.35;43.83;;;14.00;99.90;;;;;;4990085;28;20411;-74
2023/04/21 08:26:04;;;;;;;47.95;43.08;;;14.40;99.90;;;;;;4999959;28;20049;-76
2023/04/21 08:28:31;;;;;;;43.00;39.28;;;14.30;99.90;;;;;;4986027;28;20048;-75
2023/04/21 08:30:59;;;;;;;46.22;41.95;;;14.50;99.90;;;;;;4977401;28;20030;-75
2023/04/21 08:33:26;;;;;;;45.67;41.65;;;14.50;99.90;;;;;;5006872;28;20048;-77
2023/04/21 08:35:52;;;;;;;46.15;41.80;;;14.90;99.90;;;;;;4987185;28;20129;-75
2023/04/21 08:38:31;;;;;;;46.75;42.15;;;14.90;99.90;;;;;;5005256;28;20096;-74
2023/04/21 08:40:58;;;;;;;43.63;39.60;;;14.60;99.90;;;;;;5002652;28;20068;-75
2023/04/21 08:43:25;;;;;;;45.72;41.10;;;14.50;99.90;;;;;;4962226;28;20140;-75
2023/04/21 08:45:56;;;;;;;44.60;40.33;;;14.80;99.90;;;;;;4994429;28;20545;-75
2023/04/21 08:48:24;;;;;;;43.42;39.35;;;14.70;99.90;;;;;;5002148;28;20128;-76
2023/04/21 08:50:52;;;;;;;41.45;37.70;;;14.60;99.90;;;;;;4981239;28;20045;-75
2023/04/21 08:53:19;;;;;;;44.90;40.30;;;14.90;99.90;;;;;;4997057;28;20049;-75
2023/04/21 08:55:51;;;;;;;45.13;40.65;;;14.90;99.90;;;;;;4979400;28;20042;-75
2023/04/21 08:58:36;;;;;;;45.80;41.83;;;15.00;99.90;;;;;;4976938;28;20069;-73
2023/04/21 09:01:02;;;;;;;45.35;41.20;;;15.00;99.90;;;;;;4995084;28;20073;-75
2023/04/21 09:03:30;;;;;;;45.42;41.25;;;15.30;99.90;;;;;;4984961;28;20096;-74
2023/04/21 09:06:02;;;;;;;43.20;39.42;;;15.40;99.90;;;;;;4998025;28;20046;-76
2023/04/21 09:08:30;;;;;;;44.65;40.53;;;15.80;99.90;;;;;;4980668;28;20046;-74
2023/04/21 09:11:00;;;;;;;42.63;39.00;;;16.20;99.90;;;;;;4995346;28;20038;-75
2023/04/21 09:13:33;;;;;;;45.28;41.08;;;16.30;99.90;;;;;;4980595;28;20057;-75
2023/04/21 09:16:02;;;;;;;46.42;41.60;;;15.80;99.90;;;;;;5002152;28;20058;-75
2023/04/21 09:18:35;;;;;;;41.00;37.40;;;15.60;99.90;;;;;;5006974;28;20052;-74
2023/04/21 09:21:09;;;;;;;46.05;42.05;;;15.60;99.90;;;;;;4992597;28;20110;-74
2023/04/21 09:23:41;;;;;;;44.55;40.53;;;15.50;99.90;;;;;;4985877;28;20062;-74
2023/04/21 09:26:09;;;;;;;44.38;40.53;;;15.30;99.90;;;;;;4985636;28;20133;-74
2023/04/21 09:28:36;;;;;;;47.63;43.35;;;15.70;99.90;;;;;;4984100;28;20046;-74
2023/04/21 09:31:02;;;;;;;44.08;40.15;;;15.50;99.90;;;;;;4999560;28;20655;-74
2023/04/21 09:33:33;;;;;;;45.13;41.13;;;15.70;99.90;;;;;;5000992;28;20045;-75
2023/04/21 09:36:24;;;;;;;45.38;41.40;;;15.60;99.90;;;;;;4994967;28;20579;-75
2023/04/21 09:38:56;;;;;;;45.40;41.25;;;16.10;99.90;;;;;;4988707;28;20052;-74
2023/04/21 09:41:43;;;;;;;45.10;41.53;;;15.90;99.90;;;;;;4983114;28;20038;-73
2023/04/21 09:44:10;;;;;;;46.40;42.63;;;16.50;99.90;;;;;;5002469;28;20061;-75
2023/04/21 09:46:37;;;;;;;45.63;41.95;;;16.20;99.90;;;;;;5001783;28;20038;-75
2023/04/21 09:49:05;;;;;;;43.78;40.15;;;16.40;99.90;;;;;;4996287;28;20050;-75
2023/04/21 09:51:32;;;;;;;43.20;39.65;;;16.30;99.90;;;;;;4989110;28;20034;-74
2023/04/21 09:54:20;;;;;;;44.97;41.13;;;16.60;99.90;;;;;;5006962;28;20033;-74
2023/04/21 09:56:54;;;;;;;43.60;40.40;;;16.70;99.90;;;;;;4994648;28;20111;-74
2023/04/21 09:59:27;;;;;;;42.55;39.25;;;16.80;99.90;;;;;;4986595;28;20260;-74
2023/04/21 10:01:56;;;;;;;42.30;38.78;;;16.90;99.90;;;;;;5000799;28;20054;-75
2023/04/21 10:04:25;;;;;;;44.55;40.35;;;16.60;99.90;;;;;;5005932;28;20053;-74
2023/04/21 10:06:53;;;;;;;41.97;38.40;;;16.80;99.90;;;;;;4993053;28;20038;-74
2023/04/21 10:09:24;;;;;;;43.40;39.97;;;17.00;99.90;;;;;;4989912;28;20510;-75
2023/04/21 10:11:52;;;;;;;42.38;38.88;;;17.40;99.90;;;;;;4988069;28;20124;-73
2023/04/21 10:14:18;;;;;;;40.95;37.55;;;17.60;99.90;;;;;;5008109;28;20041;-74
2023/04/21 10:16:55;;;;;;;39.80;36.45;;;17.10;99.90;;;;;;5013588;28;20479;-75
2023/04/21 10:19:26;;;;;;;43.42;39.70;;;17.00;99.90;;;;;;4998455;28;20407;-74
2023/04/21 10:21:56;;;;;;;41.75;38.55;;;16.90;99.90;;;;;;4984395;28;20682;-74
2023/04/21 10:24:28;;;;;;;43.15;40.05;;;16.70;99.90;;;;;;4981005;28;20069;-74
2023/04/21 10:27:01;;;;;;;41.13;37.97;;;17.00;99.90;;;;;;5001958;28;20073;-73
2023/04/21 10:29:29;;;;;;;42.05;38.17;;;16.90;99.90;;;;;;5013391;28;20766;-74
2023/04/21 10:32:31;;;;;;;39.85;37.05;;;17.10;99.90;;;;;;4991169;28;20045;-74
2023/04/21 10:34:58;;;;;;;46.00;41.85;;;17.50;99.90;;;;;;5006344;28;20119;-74
2023/04/21 10:37:24;;;;;;;43.05;39.60;;;17.40;99.90;;;;;;4989031;28;20037;-75
2023/04/21 10:39:54;;;;;;;42.50;39.25;;;17.70;99.90;;;;;;5001126;28;20042;-73
2023/04/21 10:42:23;;;;;;;45.08;41.60;;;18.10;99.90;;;;;;4989594;28;20064;-76
2023/04/21 10:45:01;;;;;;;41.90;38.63;;;17.90;99.90;;;;;;5002732;28;20088;-74
2023/04/21 10:47:27;;;;;;;42.25;38.85;;;17.70;99.90;;;;;;5003854;28;20050;-74
2023/04/21 10:49:59;;;;;;;38.58;35.78;;;17.70;99.90;;;;;;4986077;28;20644;-74
2023/04/21 10:52:32;;;;;;;37.97;34.55;;;17.60;99.90;;;;;;4997843;28;20075;-74
2023/04/21 10:55:06;;;;;;;39.35;35.90;;;17.80;99.90;;;;;;5006083;28;20410;-75
2023/04/21 10:57:34;;;;;;;40.90;37.80;;;17.30;99.90;;;;;;4990179;28;20133;-74
2023/04/21 11:00:05;;;;;;;41.65;38.58;;;17.20;99.90;;;;;;5001929;28;20037;-74
2023/04/21 11:02:33;;;;;;;41.58;37.85;;;17.20;99.90;;;;;;4976449;28;20050;-75
2023/04/21 11:05:07;;;;;;;41.10;37.53;;;17.60;99.90;;;;;;5009552;28;20047;-74
2023/04/21 11:07:34;;;;;;;42.45;38.78;;;17.70;99.90;;;;;;5003886;28;20423;-74
2023/04/21 11:10:03;;;;;;;40.67;37.50;;;18.00;99.90;;;;;;5006830;28;20052;-74
2023/04/21 11:12:32;;;;;;;44.40;41.28;;;18.20;99.90;;;;;;5003634;28;20037;-74
2023/04/21 11:15:06;;;;;;;45.53;41.97;;;17.80;99.90;;;;;;4998164;28;20043;-74
2023/04/21 11:17:34;;;;;;;40.60;37.87;;;17.50;99.90;;;;;;5011033;28;20046;-74
2023/04/21 11:20:03;;;;;;;44.33;41.22;;;17.70;99.90;;;;;;5001609;28;20120;-74
2023/04/21 11:22:30;;;;;;;41.28;37.88;;;17.40;99.90;;;;;;4991456;28;20049;-74
2023/04/21 11:24:57;;;;;;;41.17;38.38;;;17.50;99.90;;;;;;5003492;28;20602;-74
2023/04/21 11:27:28;;;;;;;38.33;35.47;;;17.80;99.90;;;;;;4993447;28;20057;-74
2023/04/21 11:29:56;;;;;;;38.80;35.92;;;17.70;99.90;;;;;;4981618;28;20050;-74
2023/04/21 11:32:23;;;;;;;45.00;41.90;;;17.50;99.90;;;;;;5005674;28;20061;-73
2023/04/21 11:34:50;;;;;;;42.20;39.25;;;17.30;99.90;;;;;;5009248;28;20038;-74
2023/04/21 11:37:26;;;;;;;44.00;41.00;;;17.50;99.90;;;;;;4991944;28;20558;-75
2023/04/21 11:39:58;;;;;;;46.17;42.90;;;18.00;99.90;;;;;;5013271;28;20058;-75
2023/04/21 11:42:25;;;;;;;47.40;43.88;;;17.70;99.90;;;;;;4992279;28;20133;-75
2023/04/21 11:44:56;;;;;;;46.63;43.55;;;18.20;99.90;;;;;;5009661;28;20048;-74
2023/04/21 11:47:27;;;;;;;41.20;37.90;;;18.30;99.90;;;;;;4968034;28;20499;-74
2023/04/21 11:49:56;;;;;;;45.83;42.75;;;18.40;99.90;;;;;;4996942;28;20052;-75
2023/04/21 11:52:26;;;;;;;42.00;39.22;;;18.00;99.90;;;;;;5007493;28;20125;-74
2023/04/21 11:55:05;;;;;;;40.33;37.42;;;18.10;99.90;;;;;;4990197;28;20590;-73
2023/04/21 11:57:32;;;;;;;38.40;35.83;;;17.50;99.90;;;;;;4992346;28;20122;-74
2023/04/21 12:00:01;;;;;;;45.92;42.97;;;17.60;99.90;;;;;;4991325;28;20224;-75
2023/04/21 12:02:31;;;;;;;44.08;40.95;;;17.60;99.90;;;;;;5008438;28;20036;-74
2023/04/21 12:05:02;;;;;;;38.95;36.05;;;17.80;99.90;;;;;;4992751;28;20073;-75
2023/04/21 12:07:51;;;;;;;42.90;39.58;;;17.70;99.90;;;;;;5007820;28;20187;-73
2023/04/21 12:10:20;;;;;;;42.92;39.97;;;17.90;99.90;;;;;;4987923;28;20056;-74
2023/04/21 12:12:47;;;;;;;45.05;41.60;;;18.20;99.90;;;;;;5004435;28;20037;-75
2023/04/21 12:15:20;;;;;;;38.55;35.88;;;18.20;99.90;;;;;;4988398;28;20042;-73
2023/04/21 12:17:47;;;;;;;43.38;40.22;;;18.40;99.90;;;;;;5001009;28;20038;-75
2023/04/21 12:20:19;;;;;;;43.75;40.90;;;18.40;99.90;;;;;;4992869;28;20046;-74
2023/04/21 12:22:46;;;;;;;44.35;41.25;;;18.50;99.90;;;;;;5009385;28;20068;-74
2023/04/21 12:25:14;;;;;;;40.17;37.03;;;18.50;99.90;;;;;;4995243;28;20145;-75
2023/04/21 12:27:48;;;;;;;44.65;41.58;;;18.90;99.90;;;;;;4987567;28;20042;-75
2023/04/21 12:30:15;;;;;;;39.20;36.50;;;18.50;99.90;;;;;;4996441;28;20041;-74
2023/04/21 12:32:42;;;;;;;39.17;36.25;;;18.00;99.90;;;;;;4997664;28;20042;-74
2023/04/21 12:35:09;;;;;;;41.38;38.63;;;17.90;99.90;;;;;;4995477;28;20048;-74
2023/04/21 12:37:36;;;;;;;46.72;43.70;;;17.80;99.90;;;;;;4996403;28;20068;-74